sensor_id;sensor_type;location;lat;lon;timestamp;P1;durP1;ratioP1;P2;durP2;ratioP2
8044;SDS011;4065;48.754;9.982;2022-11-04T00:02:06;6.72;;;5.40;;
8044;SDS011;4065;48.754;9.982;2022-11-04T00:05:08;4.53;;;4.03;;
8044;SDS011;4065;48.754;9.982;2022-11-04T00:08:09;5.72;;;4.70;;
8044;SDS011;4065;48.754;9.982;2022-11-04T00:11:26;4.75;;;4.35;;
8044;SDS011;4065;48.754;9.982;2022-11-04T00:14:45;5.30;;;4.22;;
8044;SDS011;4065;48.754;9.982;2022-11-04T00:17:48;5.03;;;4.22;;
8044;SDS011;4065;48.754;9.982;2022-11-04T00:20:49;6.28;;;4.20;;
8044;SDS011;4065;48.754;9.982;2022-11-04T00:24:09;4.25;;;3.85;;
8044;SDS011;4065;48.754;9.982;2022-11-04T00:27:31;5.32;;;3.35;;
8044;SDS011;4065;48.754;9.982;2022-11-04T00:30:54;4.43;;;3.65;;
8044;SDS011;4065;48.754;9.982;2022-11-04T00:33:58;3.40;;;3.10;;
8044;SDS011;4065;48.754;9.982;2022-11-04T00:36:58;3.53;;;3.22;;
8044;SDS011;4065;48.754;9.982;2022-11-04T00:40:02;4.85;;;3.33;;
8044;SDS011;4065;48.754;9.982;2022-11-04T00:43:04;3.53;;;3.22;;
8044;SDS011;4065;48.754;9.982;2022-11-04T00:46:06;4.00;;;3.60;;
8044;SDS011;4065;48.754;9.982;2022-11-04T00:49:09;5.80;;;3.95;;
8044;SDS011;4065;48.754;9.982;2022-11-04T00:52:12;4.07;;;3.67;;
8044;SDS011;4065;48.754;9.982;2022-11-04T00:55:13;5.65;;;4.10;;
8044;SDS011;4065;48.754;9.982;2022-11-04T00:58:15;4.25;;;3.78;;
8044;SDS011;4065;48.754;9.982;2022-11-04T01:01:17;4.40;;;4.00;;
8044;SDS011;4065;48.754;9.982;2022-11-04T01:04:20;5.75;;;4.10;;
8044;SDS011;4065;48.754;9.982;2022-11-04T01:07:22;4.00;;;3.58;;
8044;SDS011;4065;48.754;9.982;2022-11-04T01:10:24;3.78;;;3.47;;
8044;SDS011;4065;48.754;9.982;2022-11-04T01:13:25;4.57;;;4.07;;
8044;SDS011;4065;48.754;9.982;2022-11-04T01:16:27;5.00;;;4.13;;
8044;SDS011;4065;48.754;9.982;2022-11-04T01:19:30;4.70;;;3.97;;
8044;SDS011;4065;48.754;9.982;2022-11-04T01:22:32;6.35;;;4.22;;
8044;SDS011;4065;48.754;9.982;2022-11-04T01:25:34;4.35;;;3.80;;
8044;SDS011;4065;48.754;9.982;2022-11-04T01:28:42;5.05;;;4.20;;
8044;SDS011;4065;48.754;9.982;2022-11-04T01:31:43;4.50;;;4.10;;
8044;SDS011;4065;48.754;9.982;2022-11-04T01:34:46;4.75;;;4.30;;
8044;SDS011;4065;48.754;9.982;2022-11-04T01:37:48;4.38;;;3.80;;
8044;SDS011;4065;48.754;9.982;2022-11-04T01:40:49;4.38;;;3.95;;
8044;SDS011;4065;48.754;9.982;2022-11-04T01:43:52;5.30;;;4.35;;
8044;SDS011;4065;48.754;9.982;2022-11-04T01:46:55;6.60;;;4.32;;
8044;SDS011;4065;48.754;9.982;2022-11-04T01:49:59;4.53;;;3.65;;
8044;SDS011;4065;48.754;9.982;2022-11-04T01:53:03;4.72;;;3.75;;
8044;SDS011;4065;48.754;9.982;2022-11-04T01:56:08;3.97;;;3.67;;
8044;SDS011;4065;48.754;9.982;2022-11-04T01:59:12;4.22;;;3.80;;
8044;SDS011;4065;48.754;9.982;2022-11-04T02:02:16;5.53;;;3.63;;
8044;SDS011;4065;48.754;9.982;2022-11-04T02:05:19;4.15;;;3.40;;
8044;SDS011;4065;48.754;9.982;2022-11-04T02:08:21;4.05;;;3.55;;
8044;SDS011;4065;48.754;9.982;2022-11-04T02:11:24;3.55;;;3.25;;
8044;SDS011;4065;48.754;9.982;2022-11-04T02:14:43;3.72;;;3.10;;
8044;SDS011;4065;48.754;9.982;2022-11-04T02:17:53;3.15;;;2.90;;
8044;SDS011;4065;48.754;9.982;2022-11-04T02:21:14;4.88;;;3.38;;
8044;SDS011;4065;48.754;9.982;2022-11-04T02:24:45;3.42;;;3.05;;
8044;SDS011;4065;48.754;9.982;2022-11-04T02:28:10;3.13;;;2.83;;
8044;SDS011;4065;48.754;9.982;2022-11-04T02:31:34;3.28;;;2.90;;
8044;SDS011;4065;48.754;9.982;2022-11-04T02:34:41;2.90;;;2.70;;
8044;SDS011;4065;48.754;9.982;2022-11-04T02:37:53;3.20;;;2.90;;
8044;SDS011;4065;48.754;9.982;2022-11-04T02:40:59;3.25;;;3.05;;
8044;SDS011;4065;48.754;9.982;2022-11-04T02:44:08;2.90;;;2.60;;
8044;SDS011;4065;48.754;9.982;2022-11-04T02:47:15;2.75;;;2.55;;
8044;SDS011;4065;48.754;9.982;2022-11-04T02:50:19;2.78;;;2.58;;
8044;SDS011;4065;48.754;9.982;2022-11-04T02:53:26;3.00;;;2.80;;
8044;SDS011;4065;48.754;9.982;2022-11-04T02:56:30;2.72;;;2.47;;
8044;SDS011;4065;48.754;9.982;2022-11-04T02:59:33;4.30;;;2.80;;
8044;SDS011;4065;48.754;9.982;2022-11-04T03:02:40;3.22;;;2.55;;
8044;SDS011;4065;48.754;9.982;2022-11-04T03:05:44;3.13;;;2.83;;
8044;SDS011;4065;48.754;9.982;2022-11-04T03:08:48;2.72;;;2.53;;
8044;SDS011;4065;48.754;9.982;2022-11-04T03:11:52;2.65;;;2.45;;
8044;SDS011;4065;48.754;9.982;2022-11-04T03:14:58;3.00;;;2.70;;
8044;SDS011;4065;48.754;9.982;2022-11-04T03:18:04;2.83;;;2.63;;
8044;SDS011;4065;48.754;9.982;2022-11-04T03:21:09;2.67;;;2.47;;
8044;SDS011;4065;48.754;9.982;2022-11-04T03:24:14;2.80;;;2.60;;
8044;SDS011;4065;48.754;9.982;2022-11-04T03:27:19;3.88;;;2.40;;
8044;SDS011;4065;48.754;9.982;2022-11-04T03:30:22;4.47;;;2.50;;
8044;SDS011;4065;48.754;9.982;2022-11-04T03:33:27;3.67;;;2.88;;
8044;SDS011;4065;48.754;9.982;2022-11-04T03:36:36;3.75;;;2.25;;
8044;SDS011;4065;48.754;9.982;2022-11-04T03:39:37;2.53;;;2.25;;
8044;SDS011;4065;48.754;9.982;2022-11-04T03:42:48;2.60;;;2.40;;
8044;SDS011;4065;48.754;9.982;2022-11-04T03:45:56;3.58;;;2.50;;
8044;SDS011;4065;48.754;9.982;2022-11-04T03:48:59;3.53;;;2.53;;
8044;SDS011;4065;48.754;9.982;2022-11-04T03:52:06;3.90;;;2.60;;
8044;SDS011;4065;48.754;9.982;2022-11-04T03:55:08;2.65;;;2.45;;
8044;SDS011;4065;48.754;9.982;2022-11-04T03:58:13;3.42;;;2.47;;
8044;SDS011;4065;48.754;9.982;2022-11-04T04:01:24;6.88;;;2.72;;
8044;SDS011;4065;48.754;9.982;2022-11-04T04:04:32;3.53;;;2.70;;
8044;SDS011;4065;48.754;9.982;2022-11-04T04:07:37;3.00;;;2.70;;
8044;SDS011;4065;48.754;9.982;2022-11-04T04:10:41;2.60;;;2.40;;
8044;SDS011;4065;48.754;9.982;2022-11-04T04:13:49;2.80;;;2.33;;
8044;SDS011;4065;48.754;9.982;2022-11-04T04:16:54;3.53;;;2.50;;
8044;SDS011;4065;48.754;9.982;2022-11-04T04:19:59;3.72;;;2.50;;
8044;SDS011;4065;48.754;9.982;2022-11-04T04:23:03;3.47;;;2.78;;
8044;SDS011;4065;48.754;9.982;2022-11-04T04:26:27;5.40;;;2.33;;
8044;SDS011;4065;48.754;9.982;2022-11-04T04:29:47;3.03;;;2.60;;
8044;SDS011;4065;48.754;9.982;2022-11-04T04:32:53;3.22;;;2.85;;
8044;SDS011;4065;48.754;9.982;2022-11-04T04:35:59;2.47;;;2.28;;
8044;SDS011;4065;48.754;9.982;2022-11-04T04:39:02;2.78;;;2.58;;
8044;SDS011;4065;48.754;9.982;2022-11-04T04:42:24;3.15;;;2.80;;
8044;SDS011;4065;48.754;9.982;2022-11-04T04:45:47;5.03;;;3.20;;
8044;SDS011;4065;48.754;9.982;2022-11-04T04:48:50;5.22;;;3.03;;
8044;SDS011;4065;48.754;9.982;2022-11-04T04:51:53;2.70;;;2.50;;
8044;SDS011;4065;48.754;9.982;2022-11-04T04:54:54;4.05;;;2.47;;
8044;SDS011;4065;48.754;9.982;2022-11-04T04:57:56;2.33;;;2.15;;
8044;SDS011;4065;48.754;9.982;2022-11-04T05:00:58;2.75;;;2.55;;
8044;SDS011;4065;48.754;9.982;2022-11-04T05:04:03;6.10;;;4.05;;
8044;SDS011;4065;48.754;9.982;2022-11-04T05:07:08;6.38;;;3.45;;
8044;SDS011;4065;48.754;9.982;2022-11-04T05:10:10;5.07;;;3.13;;
8044;SDS011;4065;48.754;9.982;2022-11-04T05:13:13;3.70;;;3.00;;
8044;SDS011;4065;48.754;9.982;2022-11-04T05:16:28;4.60;;;3.05;;
8044;SDS011;4065;48.754;9.982;2022-11-04T05:19:30;3.42;;;3.13;;
8044;SDS011;4065;48.754;9.982;2022-11-04T05:22:33;3.25;;;2.47;;
8044;SDS011;4065;48.754;9.982;2022-11-04T05:25:34;4.10;;;3.60;;
8044;SDS011;4065;48.754;9.982;2022-11-04T05:28:36;5.43;;;4.22;;
8044;SDS011;4065;48.754;9.982;2022-11-04T05:31:38;3.92;;;2.92;;
8044;SDS011;4065;48.754;9.982;2022-11-04T05:34:40;4.85;;;3.90;;
8044;SDS011;4065;48.754;9.982;2022-11-04T05:37:43;4.45;;;3.53;;
8044;SDS011;4065;48.754;9.982;2022-11-04T05:40:45;11.05;;;9.52;;
8044;SDS011;4065;48.754;9.982;2022-11-04T05:43:47;12.52;;;9.15;;
8044;SDS011;4065;48.754;9.982;2022-11-04T05:46:50;12.45;;;6.90;;
8044;SDS011;4065;48.754;9.982;2022-11-04T05:49:52;10.00;;;6.82;;
8044;SDS011;4065;48.754;9.982;2022-11-04T05:52:56;5.63;;;4.97;;
8044;SDS011;4065;48.754;9.982;2022-11-04T05:55:58;3.75;;;3.45;;
8044;SDS011;4065;48.754;9.982;2022-11-04T05:58:59;4.75;;;4.20;;
8044;SDS011;4065;48.754;9.982;2022-11-04T06:02:01;6.55;;;3.90;;
8044;SDS011;4065;48.754;9.982;2022-11-04T06:05:03;3.92;;;3.28;;
8044;SDS011;4065;48.754;9.982;2022-11-04T06:08:09;3.97;;;3.58;;
8044;SDS011;4065;48.754;9.982;2022-11-04T06:11:14;5.57;;;3.63;;
8044;SDS011;4065;48.754;9.982;2022-11-04T06:14:16;4.68;;;4.15;;
8044;SDS011;4065;48.754;9.982;2022-11-04T06:17:18;4.50;;;3.60;;
8044;SDS011;4065;48.754;9.982;2022-11-04T06:20:21;6.45;;;3.40;;
8044;SDS011;4065;48.754;9.982;2022-11-04T06:23:24;4.22;;;3.20;;
8044;SDS011;4065;48.754;9.982;2022-11-04T06:26:26;3.13;;;2.90;;
8044;SDS011;4065;48.754;9.982;2022-11-04T06:29:30;3.55;;;3.25;;
8044;SDS011;4065;48.754;9.982;2022-11-04T06:32:32;3.40;;;3.03;;
8044;SDS011;4065;48.754;9.982;2022-11-04T06:35:33;5.13;;;2.95;;
8044;SDS011;4065;48.754;9.982;2022-11-04T06:38:37;4.82;;;3.63;;
8044;SDS011;4065;48.754;9.982;2022-11-04T06:41:39;5.43;;;3.42;;
8044;SDS011;4065;48.754;9.982;2022-11-04T06:44:40;5.93;;;4.43;;
8044;SDS011;4065;48.754;9.982;2022-11-04T06:47:44;5.70;;;4.20;;
8044;SDS011;4065;48.754;9.982;2022-11-04T06:50:46;6.40;;;5.15;;
8044;SDS011;4065;48.754;9.982;2022-11-04T06:53:49;7.53;;;4.00;;
8044;SDS011;4065;48.754;9.982;2022-11-04T06:56:51;11.13;;;6.88;;
8044;SDS011;4065;48.754;9.982;2022-11-04T06:59:54;14.30;;;7.80;;
8044;SDS011;4065;48.754;9.982;2022-11-04T07:02:58;12.27;;;7.88;;
8044;SDS011;4065;48.754;9.982;2022-11-04T07:06:04;10.25;;;9.25;;
8044;SDS011;4065;48.754;9.982;2022-11-04T07:09:10;7.15;;;5.57;;
8044;SDS011;4065;48.754;9.982;2022-11-04T07:12:13;5.20;;;4.07;;
8044;SDS011;4065;48.754;9.982;2022-11-04T07:15:15;8.52;;;5.70;;
8044;SDS011;4065;48.754;9.982;2022-11-04T07:18:17;8.90;;;5.43;;
8044;SDS011;4065;48.754;9.982;2022-11-04T07:21:19;9.25;;;5.35;;
8044;SDS011;4065;48.754;9.982;2022-11-04T07:24:22;5.32;;;3.67;;
8044;SDS011;4065;48.754;9.982;2022-11-04T07:27:27;4.07;;;3.42;;
8044;SDS011;4065;48.754;9.982;2022-11-04T07:30:29;4.47;;;3.47;;
8044;SDS011;4065;48.754;9.982;2022-11-04T07:33:30;4.90;;;3.58;;
8044;SDS011;4065;48.754;9.982;2022-11-04T07:36:35;4.22;;;3.80;;
8044;SDS011;4065;48.754;9.982;2022-11-04T07:39:39;4.88;;;3.58;;
8044;SDS011;4065;48.754;9.982;2022-11-04T07:42:40;4.30;;;3.13;;
8044;SDS011;4065;48.754;9.982;2022-11-04T07:45:42;4.03;;;3.40;;
8044;SDS011;4065;48.754;9.982;2022-11-04T07:48:44;6.45;;;4.30;;
8044;SDS011;4065;48.754;9.982;2022-11-04T07:51:46;13.15;;;9.18;;
8044;SDS011;4065;48.754;9.982;2022-11-04T07:54:49;14.95;;;9.75;;
8044;SDS011;4065;48.754;9.982;2022-11-04T07:57:53;13.88;;;10.68;;
8044;SDS011;4065;48.754;9.982;2022-11-04T08:00:56;6.82;;;4.05;;
8044;SDS011;4065;48.754;9.982;2022-11-04T08:03:59;5.13;;;3.50;;
8044;SDS011;4065;48.754;9.982;2022-11-04T08:07:01;5.25;;;3.30;;
8044;SDS011;4065;48.754;9.982;2022-11-04T08:10:08;3.63;;;3.30;;
8044;SDS011;4065;48.754;9.982;2022-11-04T08:13:10;4.55;;;3.45;;
8044;SDS011;4065;48.754;9.982;2022-11-04T08:16:12;5.72;;;3.40;;
8044;SDS011;4065;48.754;9.982;2022-11-04T08:19:14;3.47;;;2.85;;
8044;SDS011;4065;48.754;9.982;2022-11-04T08:22:16;3.30;;;2.78;;
8044;SDS011;4065;48.754;9.982;2022-11-04T08:25:19;2.95;;;2.70;;
8044;SDS011;4065;48.754;9.982;2022-11-04T08:28:22;4.38;;;3.08;;
8044;SDS011;4065;48.754;9.982;2022-11-04T08:31:25;3.78;;;2.65;;
8044;SDS011;4065;48.754;9.982;2022-11-04T08:34:27;3.33;;;3.00;;
8044;SDS011;4065;48.754;9.982;2022-11-04T08:37:29;4.05;;;3.08;;
8044;SDS011;4065;48.754;9.982;2022-11-04T08:40:32;4.65;;;2.95;;
8044;SDS011;4065;48.754;9.982;2022-11-04T08:43:36;3.22;;;2.78;;
8044;SDS011;4065;48.754;9.982;2022-11-04T08:46:39;6.15;;;2.92;;
8044;SDS011;4065;48.754;9.982;2022-11-04T08:49:42;3.70;;;3.38;;
8044;SDS011;4065;48.754;9.982;2022-11-04T08:52:46;5.72;;;3.42;;
8044;SDS011;4065;48.754;9.982;2022-11-04T08:55:49;3.67;;;2.95;;
8044;SDS011;4065;48.754;9.982;2022-11-04T08:58:52;5.05;;;2.80;;
8044;SDS011;4065;48.754;9.982;2022-11-04T09:01:54;4.32;;;2.60;;
8044;SDS011;4065;48.754;9.982;2022-11-04T09:04:55;4.32;;;2.70;;
8044;SDS011;4065;48.754;9.982;2022-11-04T09:07:57;3.75;;;2.50;;
8044;SDS011;4065;48.754;9.982;2022-11-04T09:11:01;4.25;;;2.65;;
8044;SDS011;4065;48.754;9.982;2022-11-04T09:14:06;4.18;;;2.80;;
8044;SDS011;4065;48.754;9.982;2022-11-04T09:17:08;4.00;;;2.80;;
8044;SDS011;4065;48.754;9.982;2022-11-04T09:20:12;4.13;;;3.60;;
8044;SDS011;4065;48.754;9.982;2022-11-04T09:23:14;5.88;;;3.60;;
8044;SDS011;4065;48.754;9.982;2022-11-04T09:26:17;4.05;;;2.83;;
8044;SDS011;4065;48.754;9.982;2022-11-04T09:29:19;7.03;;;3.30;;
8044;SDS011;4065;48.754;9.982;2022-11-04T09:32:21;4.97;;;3.25;;
8044;SDS011;4065;48.754;9.982;2022-11-04T09:35:23;8.45;;;4.43;;
8044;SDS011;4065;48.754;9.982;2022-11-04T09:38:28;6.13;;;3.90;;
8044;SDS011;4065;48.754;9.982;2022-11-04T09:41:41;8.18;;;3.80;;
8044;SDS011;4065;48.754;9.982;2022-11-04T09:45:01;4.10;;;3.22;;
8044;SDS011;4065;48.754;9.982;2022-11-04T09:48:12;6.07;;;4.03;;
8044;SDS011;4065;48.754;9.982;2022-11-04T09:51:45;3.30;;;3.00;;
8044;SDS011;4065;48.754;9.982;2022-11-04T09:54:49;6.60;;;4.78;;
8044;SDS011;4065;48.754;9.982;2022-11-04T09:57:59;7.38;;;4.63;;
8044;SDS011;4065;48.754;9.982;2022-11-04T10:01:10;5.95;;;4.72;;
8044;SDS011;4065;48.754;9.982;2022-11-04T10:04:20;5.38;;;4.82;;
8044;SDS011;4065;48.754;9.982;2022-11-04T10:07:30;5.65;;;4.05;;
8044;SDS011;4065;48.754;9.982;2022-11-04T10:10:45;5.57;;;4.57;;
8044;SDS011;4065;48.754;9.982;2022-11-04T10:13:59;4.50;;;3.50;;
8044;SDS011;4065;48.754;9.982;2022-11-04T10:17:20;4.10;;;3.30;;
8044;SDS011;4065;48.754;9.982;2022-11-04T10:20:36;3.38;;;2.92;;
8044;SDS011;4065;48.754;9.982;2022-11-04T10:23:45;5.00;;;3.03;;
8044;SDS011;4065;48.754;9.982;2022-11-04T10:26:56;6.78;;;3.40;;
8044;SDS011;4065;48.754;9.982;2022-11-04T10:30:06;3.72;;;2.80;;
8044;SDS011;4065;48.754;9.982;2022-11-04T10:33:25;4.82;;;3.30;;
8044;SDS011;4065;48.754;9.982;2022-11-04T10:36:43;3.85;;;2.80;;
8044;SDS011;4065;48.754;9.982;2022-11-04T10:43:33;4.97;;;2.97;;
8044;SDS011;4065;48.754;9.982;2022-11-04T10:46:40;5.85;;;3.05;;
8044;SDS011;4065;48.754;9.982;2022-11-04T10:49:53;5.65;;;3.00;;
8044;SDS011;4065;48.754;9.982;2022-11-04T10:53:22;2.70;;;2.50;;
8044;SDS011;4065;48.754;9.982;2022-11-04T10:56:37;2.58;;;2.30;;
8044;SDS011;4065;48.754;9.982;2022-11-04T10:59:53;3.67;;;2.83;;
8044;SDS011;4065;48.754;9.982;2022-11-04T11:02:58;7.15;;;3.50;;
8044;SDS011;4065;48.754;9.982;2022-11-04T11:06:11;2.60;;;2.40;;
8044;SDS011;4065;48.754;9.982;2022-11-04T11:09:17;2.88;;;2.10;;
8044;SDS011;4065;48.754;9.982;2022-11-04T11:12:27;3.35;;;2.30;;
8044;SDS011;4065;48.754;9.982;2022-11-04T11:15:36;3.33;;;2.30;;
8044;SDS011;4065;48.754;9.982;2022-11-04T11:18:42;7.70;;;2.63;;
8044;SDS011;4065;48.754;9.982;2022-11-04T11:21:45;3.03;;;2.20;;
8044;SDS011;4065;48.754;9.982;2022-11-04T11:24:49;6.70;;;5.95;;
8044;SDS011;4065;48.754;9.982;2022-11-04T11:27:51;3.15;;;2.58;;
8044;SDS011;4065;48.754;9.982;2022-11-04T11:30:56;4.15;;;2.40;;
8044;SDS011;4065;48.754;9.982;2022-11-04T11:34:01;4.45;;;2.00;;
8044;SDS011;4065;48.754;9.982;2022-11-04T11:37:12;2.22;;;1.90;;
8044;SDS011;4065;48.754;9.982;2022-11-04T11:40:23;5.20;;;2.20;;
8044;SDS011;4065;48.754;9.982;2022-11-04T11:43:27;3.13;;;2.22;;
8044;SDS011;4065;48.754;9.982;2022-11-04T11:46:31;2.95;;;2.00;;
8044;SDS011;4065;48.754;9.982;2022-11-04T11:49:36;5.05;;;2.00;;
8044;SDS011;4065;48.754;9.982;2022-11-04T11:52:41;3.33;;;2.00;;
8044;SDS011;4065;48.754;9.982;2022-11-04T11:55:48;4.32;;;1.75;;
8044;SDS011;4065;48.754;9.982;2022-11-04T11:58:56;4.50;;;1.90;;
8044;SDS011;4065;48.754;9.982;2022-11-04T12:02:18;4.40;;;2.00;;
8044;SDS011;4065;48.754;9.982;2022-11-04T12:05:31;3.42;;;2.08;;
8044;SDS011;4065;48.754;9.982;2022-11-04T12:08:41;3.13;;;2.00;;
8044;SDS011;4065;48.754;9.982;2022-11-04T12:12:11;4.88;;;2.83;;
8044;SDS011;4065;48.754;9.982;2022-11-04T12:15:24;3.45;;;1.83;;
8044;SDS011;4065;48.754;9.982;2022-11-04T12:18:45;2.05;;;1.70;;
8044;SDS011;4065;48.754;9.982;2022-11-04T12:21:57;5.18;;;2.55;;
8044;SDS011;4065;48.754;9.982;2022-11-04T12:25:08;3.67;;;1.70;;
8044;SDS011;4065;48.754;9.982;2022-11-04T12:28:21;4.90;;;1.90;;
8044;SDS011;4065;48.754;9.982;2022-11-04T12:31:30;4.95;;;2.50;;
8044;SDS011;4065;48.754;9.982;2022-11-04T12:34:40;4.32;;;1.80;;
8044;SDS011;4065;48.754;9.982;2022-11-04T12:37:50;33.92;;;13.73;;
8044;SDS011;4065;48.754;9.982;2022-11-04T12:41:02;7.85;;;2.95;;
8044;SDS011;4065;48.754;9.982;2022-11-04T12:44:12;4.65;;;2.03;;
8044;SDS011;4065;48.754;9.982;2022-11-04T12:47:22;5.95;;;2.53;;
8044;SDS011;4065;48.754;9.982;2022-11-04T12:50:33;16.33;;;10.07;;
8044;SDS011;4065;48.754;9.982;2022-11-04T12:53:51;9.07;;;6.03;;
8044;SDS011;4065;48.754;9.982;2022-11-04T12:57:10;14.63;;;7.03;;
8044;SDS011;4065;48.754;9.982;2022-11-04T13:00:16;7.25;;;2.70;;
8044;SDS011;4065;48.754;9.982;2022-11-04T13:03:21;3.55;;;2.05;;
8044;SDS011;4065;48.754;9.982;2022-11-04T13:06:30;4.63;;;2.28;;
8044;SDS011;4065;48.754;9.982;2022-11-04T13:09:36;4.95;;;2.95;;
8044;SDS011;4065;48.754;9.982;2022-11-04T13:12:41;6.35;;;2.47;;
8044;SDS011;4065;48.754;9.982;2022-11-04T13:15:45;4.88;;;2.30;;
8044;SDS011;4065;48.754;9.982;2022-11-04T13:18:49;4.13;;;2.20;;
8044;SDS011;4065;48.754;9.982;2022-11-04T13:21:50;5.10;;;2.60;;
8044;SDS011;4065;48.754;9.982;2022-11-04T13:24:56;5.13;;;2.25;;
8044;SDS011;4065;48.754;9.982;2022-11-04T13:28:02;19.95;;;15.27;;
8044;SDS011;4065;48.754;9.982;2022-11-04T13:31:04;11.07;;;8.40;;
8044;SDS011;4065;48.754;9.982;2022-11-04T13:34:10;5.10;;;4.60;;
8044;SDS011;4065;48.754;9.982;2022-11-04T13:37:19;6.57;;;4.88;;
8044;SDS011;4065;48.754;9.982;2022-11-04T13:40:25;6.28;;;2.30;;
8044;SDS011;4065;48.754;9.982;2022-11-04T13:43:29;3.42;;;2.42;;
8044;SDS011;4065;48.754;9.982;2022-11-04T13:46:39;5.90;;;2.38;;
8044;SDS011;4065;48.754;9.982;2022-11-04T13:49:48;2.88;;;2.10;;
8044;SDS011;4065;48.754;9.982;2022-11-04T13:52:51;4.70;;;2.78;;
8044;SDS011;4065;48.754;9.982;2022-11-04T13:55:56;5.97;;;2.65;;
8044;SDS011;4065;48.754;9.982;2022-11-04T13:58:58;5.55;;;2.33;;
8044;SDS011;4065;48.754;9.982;2022-11-04T14:02:24;4.53;;;2.38;;
8044;SDS011;4065;48.754;9.982;2022-11-04T14:12:35;5.22;;;2.17;;
8044;SDS011;4065;48.754;9.982;2022-11-04T14:19:44;12.57;;;6.85;;
8044;SDS011;4065;48.754;9.982;2022-11-04T14:22:57;7.75;;;5.47;;
8044;SDS011;4065;48.754;9.982;2022-11-04T14:25:59;8.35;;;3.65;;
8044;SDS011;4065;48.754;9.982;2022-11-04T14:29:08;6.20;;;3.00;;
8044;SDS011;4065;48.754;9.982;2022-11-04T14:32:17;5.57;;;2.95;;
8044;SDS011;4065;48.754;9.982;2022-11-04T14:35:24;3.47;;;2.30;;
8044;SDS011;4065;48.754;9.982;2022-11-04T14:38:27;6.65;;;2.20;;
8044;SDS011;4065;48.754;9.982;2022-11-04T14:41:31;3.13;;;2.50;;
8044;SDS011;4065;48.754;9.982;2022-11-04T14:44:50;4.63;;;2.58;;
8044;SDS011;4065;48.754;9.982;2022-11-04T14:47:53;10.18;;;6.20;;
8044;SDS011;4065;48.754;9.982;2022-11-04T14:50:56;10.68;;;6.13;;
8044;SDS011;4065;48.754;9.982;2022-11-04T14:54:03;6.45;;;4.72;;
8044;SDS011;4065;48.754;9.982;2022-11-04T14:57:07;6.45;;;3.53;;
8044;SDS011;4065;48.754;9.982;2022-11-04T15:00:21;11.95;;;4.75;;
8044;SDS011;4065;48.754;9.982;2022-11-04T15:03:29;11.95;;;7.90;;
8044;SDS011;4065;48.754;9.982;2022-11-04T15:06:33;31.45;;;18.90;;
8044;SDS011;4065;48.754;9.982;2022-11-04T15:09:38;8.38;;;5.18;;
8044;SDS011;4065;48.754;9.982;2022-11-04T15:12:42;6.53;;;3.75;;
8044;SDS011;4065;48.754;9.982;2022-11-04T15:15:52;7.80;;;3.28;;
8044;SDS011;4065;48.754;9.982;2022-11-04T15:18:56;7.35;;;3.58;;
8044;SDS011;4065;48.754;9.982;2022-11-04T15:21:59;5.18;;;3.00;;
8044;SDS011;4065;48.754;9.982;2022-11-04T15:25:02;11.38;;;5.00;;
8044;SDS011;4065;48.754;9.982;2022-11-04T15:28:10;5.55;;;3.85;;
8044;SDS011;4065;48.754;9.982;2022-11-04T15:31:18;8.07;;;4.00;;
8044;SDS011;4065;48.754;9.982;2022-11-04T15:34:21;6.25;;;4.18;;
8044;SDS011;4065;48.754;9.982;2022-11-04T15:37:24;11.73;;;6.22;;
8044;SDS011;4065;48.754;9.982;2022-11-04T15:40:28;7.72;;;3.58;;
8044;SDS011;4065;48.754;9.982;2022-11-04T15:43:30;7.75;;;3.45;;
8044;SDS011;4065;48.754;9.982;2022-11-04T15:46:33;7.40;;;3.30;;
8044;SDS011;4065;48.754;9.982;2022-11-04T15:49:34;6.80;;;3.47;;
8044;SDS011;4065;48.754;9.982;2022-11-04T15:52:36;7.13;;;3.55;;
8044;SDS011;4065;48.754;9.982;2022-11-04T15:55:38;5.40;;;4.85;;
8044;SDS011;4065;48.754;9.982;2022-11-04T15:58:40;6.05;;;4.70;;
8044;SDS011;4065;48.754;9.982;2022-11-04T16:01:44;6.07;;;4.30;;
8044;SDS011;4065;48.754;9.982;2022-11-04T16:04:54;7.85;;;4.35;;
8044;SDS011;4065;48.754;9.982;2022-11-04T16:08:17;12.82;;;7.32;;
8044;SDS011;4065;48.754;9.982;2022-11-04T16:11:20;22.00;;;11.50;;
8044;SDS011;4065;48.754;9.982;2022-11-04T16:14:23;21.65;;;11.77;;
8044;SDS011;4065;48.754;9.982;2022-11-04T16:17:27;82.07;;;38.67;;
8044;SDS011;4065;48.754;9.982;2022-11-04T16:20:29;67.72;;;32.45;;
8044;SDS011;4065;48.754;9.982;2022-11-04T16:23:31;32.45;;;14.55;;
8044;SDS011;4065;48.754;9.982;2022-11-04T16:26:38;20.42;;;10.20;;
8044;SDS011;4065;48.754;9.982;2022-11-04T16:29:42;18.17;;;10.95;;
8044;SDS011;4065;48.754;9.982;2022-11-04T16:32:45;22.67;;;13.10;;
8044;SDS011;4065;48.754;9.982;2022-11-04T16:35:49;19.02;;;11.07;;
8044;SDS011;4065;48.754;9.982;2022-11-04T16:43:21;21.90;;;12.90;;
8044;SDS011;4065;48.754;9.982;2022-11-04T16:46:33;43.78;;;26.85;;
8044;SDS011;4065;48.754;9.982;2022-11-04T16:53:14;139.93;;;73.50;;
8044;SDS011;4065;48.754;9.982;2022-11-04T16:56:24;180.38;;;105.03;;
8044;SDS011;4065;48.754;9.982;2022-11-04T16:59:30;81.50;;;47.95;;
8044;SDS011;4065;48.754;9.982;2022-11-04T17:02:32;36.55;;;23.58;;
8044;SDS011;4065;48.754;9.982;2022-11-04T17:05:38;27.88;;;16.30;;
8044;SDS011;4065;48.754;9.982;2022-11-04T17:08:39;19.88;;;12.55;;
8044;SDS011;4065;48.754;9.982;2022-11-04T17:11:42;30.02;;;19.92;;
8044;SDS011;4065;48.754;9.982;2022-11-04T17:14:43;38.63;;;24.08;;
8044;SDS011;4065;48.754;9.982;2022-11-04T17:17:45;61.35;;;35.75;;
8044;SDS011;4065;48.754;9.982;2022-11-04T17:20:49;33.50;;;21.10;;
8044;SDS011;4065;48.754;9.982;2022-11-04T17:23:52;31.85;;;21.85;;
8044;SDS011;4065;48.754;9.982;2022-11-04T17:26:55;26.20;;;16.98;;
8044;SDS011;4065;48.754;9.982;2022-11-04T17:29:56;24.05;;;15.98;;
8044;SDS011;4065;48.754;9.982;2022-11-04T17:32:58;20.15;;;14.25;;
8044;SDS011;4065;48.754;9.982;2022-11-04T17:36:01;23.38;;;15.23;;
8044;SDS011;4065;48.754;9.982;2022-11-04T17:39:03;18.17;;;12.05;;
8044;SDS011;4065;48.754;9.982;2022-11-04T17:42:07;17.45;;;12.32;;
8044;SDS011;4065;48.754;9.982;2022-11-04T17:45:26;15.05;;;11.48;;
8044;SDS011;4065;48.754;9.982;2022-11-04T17:48:29;19.38;;;11.48;;
8044;SDS011;4065;48.754;9.982;2022-11-04T17:51:33;14.82;;;11.27;;
8044;SDS011;4065;48.754;9.982;2022-11-04T17:54:35;23.25;;;14.43;;
8044;SDS011;4065;48.754;9.982;2022-11-04T17:57:36;11.77;;;8.38;;
8044;SDS011;4065;48.754;9.982;2022-11-04T18:00:38;12.77;;;7.72;;
8044;SDS011;4065;48.754;9.982;2022-11-04T18:03:40;51.83;;;23.77;;
8044;SDS011;4065;48.754;9.982;2022-11-04T18:06:46;62.35;;;29.67;;
8044;SDS011;4065;48.754;9.982;2022-11-04T18:09:48;41.20;;;24.30;;
8044;SDS011;4065;48.754;9.982;2022-11-04T18:12:52;36.67;;;24.92;;
8044;SDS011;4065;48.754;9.982;2022-11-04T18:15:53;32.45;;;19.95;;
8044;SDS011;4065;48.754;9.982;2022-11-04T18:18:56;28.17;;;18.98;;
8044;SDS011;4065;48.754;9.982;2022-11-04T18:22:00;18.85;;;14.50;;
8044;SDS011;4065;48.754;9.982;2022-11-04T18:25:02;18.92;;;13.65;;
8044;SDS011;4065;48.754;9.982;2022-11-04T18:28:04;13.32;;;10.02;;
8044;SDS011;4065;48.754;9.982;2022-11-04T18:31:06;13.57;;;10.75;;
8044;SDS011;4065;48.754;9.982;2022-11-04T18:34:09;11.68;;;9.30;;
8044;SDS011;4065;48.754;9.982;2022-11-04T18:37:13;12.07;;;10.77;;
8044;SDS011;4065;48.754;9.982;2022-11-04T18:40:15;15.07;;;11.45;;
8044;SDS011;4065;48.754;9.982;2022-11-04T18:43:17;16.83;;;13.52;;
8044;SDS011;4065;48.754;9.982;2022-11-04T18:46:19;34.30;;;21.67;;
8044;SDS011;4065;48.754;9.982;2022-11-04T18:49:21;22.52;;;15.65;;
8044;SDS011;4065;48.754;9.982;2022-11-04T18:52:24;13.13;;;8.35;;
8044;SDS011;4065;48.754;9.982;2022-11-04T18:55:26;39.17;;;23.48;;
8044;SDS011;4065;48.754;9.982;2022-11-04T18:58:29;33.90;;;21.95;;
8044;SDS011;4065;48.754;9.982;2022-11-04T19:01:32;13.88;;;11.68;;
8044;SDS011;4065;48.754;9.982;2022-11-04T19:04:34;12.68;;;9.27;;
8044;SDS011;4065;48.754;9.982;2022-11-04T19:07:37;18.25;;;10.77;;
8044;SDS011;4065;48.754;9.982;2022-11-04T19:10:40;12.82;;;9.20;;
8044;SDS011;4065;48.754;9.982;2022-11-04T19:13:42;9.93;;;8.00;;
8044;SDS011;4065;48.754;9.982;2022-11-04T19:16:44;7.35;;;5.30;;
8044;SDS011;4065;48.754;9.982;2022-11-04T19:19:45;9.93;;;6.70;;
8044;SDS011;4065;48.754;9.982;2022-11-04T19:22:48;9.82;;;7.45;;
8044;SDS011;4065;48.754;9.982;2022-11-04T19:25:50;13.38;;;7.85;;
8044;SDS011;4065;48.754;9.982;2022-11-04T19:28:52;7.95;;;6.45;;
8044;SDS011;4065;48.754;9.982;2022-11-04T19:31:53;9.00;;;5.80;;